sensor_id;sensor_type;location;lat;lon;timestamp;temperature;humidity
46085;DHT22;31823;47.032;8.310;2023-11-19T00:00:50;5.80;99.90
46085;DHT22;31823;47.032;8.310;2023-11-19T00:03:16;5.80;99.90
46085;DHT22;31823;47.032;8.310;2023-11-19T00:05:43;5.80;99.90
46085;DHT22;31823;47.032;8.310;2023-11-19T00:08:10;5.80;99.90
46085;DHT22;31823;47.032;8.310;2023-11-19T00:10:35;5.80;99.90
46085;DHT22;31823;47.032;8.310;2023-11-19T00:13:01;5.80;99.90
46085;DHT22;31823;47.032;8.310;2023-11-19T00:15:28;5.70;99.90
46085;DHT22;31823;47.032;8.310;2023-11-19T00:17:53;5.80;99.90
46085;DHT22;31823;47.032;8.310;2023-11-19T00:20:20;5.70;99.90
46085;DHT22;31823;47.032;8.310;2023-11-19T00:22:49;5.70;99.90
46085;DHT22;31823;47.032;8.310;2023-11-19T00:25:17;5.70;99.90
46085;DHT22;31823;47.032;8.310;2023-11-19T00:27:42;5.70;99.90
46085;DHT22;31823;47.032;8.310;2023-11-19T00:30:11;5.80;99.90
46085;DHT22;31823;47.032;8.310;2023-11-19T00:32:36;5.90;99.90
46085;DHT22;31823;47.032;8.310;2023-11-19T00:35:04;5.90;99.90
46085;DHT22;31823;47.032;8.310;2023-11-19T00:37:30;5.90;99.90
46085;DHT22;31823;47.032;8.310;2023-11-19T00:39:55;5.80;99.90
46085;DHT22;31823;47.032;8.310;2023-11-19T00:42:24;5.70;99.90
46085;DHT22;31823;47.032;8.310;2023-11-19T00:44:53;5.70;99.90
46085;DHT22;31823;47.032;8.310;2023-11-19T00:47:18;5.70;99.90
46085;DHT22;31823;47.032;8.310;2023-11-19T00:49:47;5.70;99.90
46085;DHT22;31823;47.032;8.310;2023-11-19T00:52:16;5.70;99.90
46085;DHT22;31823;47.032;8.310;2023-11-19T00:54:43;5.70;99.90
46085;DHT22;31823;47.032;8.310;2023-11-19T00:57:08;5.70;99.90
46085;DHT22;31823;47.032;8.310;2023-11-19T00:59:34;5.70;99.90
46085;DHT22;31823;47.032;8.310;2023-11-19T01:01:59;5.80;99.90
46085;DHT22;31823;47.032;8.310;2023-11-19T01:04:29;5.70;99.90
46085;DHT22;31823;47.032;8.310;2023-11-19T01:06:55;5.70;99.90
46085;DHT22;31823;47.032;8.310;2023-11-19T01:09:20;5.70;99.90
46085;DHT22;31823;47.032;8.310;2023-11-19T01:11:46;5.70;99.90
46085;DHT22;31823;47.032;8.310;2023-11-19T01:14:12;5.70;99.90
46085;DHT22;31823;47.032;8.310;2023-11-19T01:16:37;5.70;99.90
46085;DHT22;31823;47.032;8.310;2023-11-19T01:19:03;5.60;99.90
46085;DHT22;31823;47.032;8.310;2023-11-19T01:21:31;5.70;99.90
46085;DHT22;31823;47.032;8.310;2023-11-19T01:24:00;5.60;99.90
46085;DHT22;31823;47.032;8.310;2023-11-19T01:26:26;5.70;99.90
46085;DHT22;31823;47.032;8.310;2023-11-19T01:28:52;5.70;99.90
46085;DHT22;31823;47.032;8.310;2023-11-19T01:31:18;5.70;99.90
46085;DHT22;31823;47.032;8.310;2023-11-19T01:33:44;5.70;99.90
46085;DHT22;31823;47.032;8.310;2023-11-19T01:36:13;5.70;99.90
46085;DHT22;31823;47.032;8.310;2023-11-19T01:38:39;5.70;99.90
46085;DHT22;31823;47.032;8.310;2023-11-19T01:41:04;5.60;99.90
46085;DHT22;31823;47.032;8.310;2023-11-19T01:43:35;5.70;99.90
46085;DHT22;31823;47.032;8.310;2023-11-19T01:46:02;5.60;99.90
46085;DHT22;31823;47.032;8.310;2023-11-19T01:48:29;5.60;99.90
46085;DHT22;31823;47.032;8.310;2023-11-19T01:50:56;5.60;99.90
46085;DHT22;31823;47.032;8.310;2023-11-19T01:53:22;5.70;99.90
46085;DHT22;31823;47.032;8.310;2023-11-19T01:55:48;5.70;99.90
46085;DHT22;31823;47.032;8.310;2023-11-19T01:58:15;5.70;99.90
46085;DHT22;31823;47.032;8.310;2023-11-19T02:00:41;5.80;99.90
46085;DHT22;31823;47.032;8.310;2023-11-19T02:03:07;5.80;99.90
46085;DHT22;31823;47.032;8.310;2023-11-19T02:05:34;5.70;99.90
46085;DHT22;31823;47.032;8.310;2023-11-19T02:08:01;5.80;99.90
46085;DHT22;31823;47.032;8.310;2023-11-19T02:10:27;5.80;99.90
46085;DHT22;31823;47.032;8.310;2023-11-19T02:12:52;5.80;99.90
46085;DHT22;31823;47.032;8.310;2023-11-19T02:15:18;5.90;99.90
46085;DHT22;31823;47.032;8.310;2023-11-19T02:17:52;5.90;99.90
46085;DHT22;31823;47.032;8.310;2023-11-19T02:20:18;6.00;99.90
46085;DHT22;31823;47.032;8.310;2023-11-19T02:22:46;6.00;99.90
46085;DHT22;31823;47.032;8.310;2023-11-19T02:25:17;6.00;99.90
46085;DHT22;31823;47.032;8.310;2023-11-19T02:27:56;6.10;99.90
46085;DHT22;31823;47.032;8.310;2023-11-19T02:30:24;6.10;99.90
46085;DHT22;31823;47.032;8.310;2023-11-19T02:32:53;6.10;99.90
46085;DHT22;31823;47.032;8.310;2023-11-19T02:35:19;6.10;99.90
46085;DHT22;31823;47.032;8.310;2023-11-19T02:37:47;6.10;99.90
46085;DHT22;31823;47.032;8.310;2023-11-19T02:40:13;6.20;99.90
46085;DHT22;31823;47.032;8.310;2023-11-19T02:42:39;6.10;99.90
46085;DHT22;31823;47.032;8.310;2023-11-19T02:45:05;6.10;99.90
46085;DHT22;31823;47.032;8.310;2023-11-19T02:47:32;6.10;99.90
46085;DHT22;31823;47.032;8.310;2023-11-19T02:49:59;6.20;99.90
46085;DHT22;31823;47.032;8.310;2023-11-19T02:52:24;6.30;99.90
46085;DHT22;31823;47.032;8.310;2023-11-19T02:54:50;6.20;99.90
46085;DHT22;31823;47.032;8.310;2023-11-19T02:57:16;6.20;99.90
46085;DHT22;31823;47.032;8.310;2023-11-19T02:59:44;6.50;99.90
46085;DHT22;31823;47.032;8.310;2023-11-19T03:02:10;6.60;99.90
46085;DHT22;31823;47.032;8.310;2023-11-19T03:04:37;6.50;99.90
46085;DHT22;31823;47.032;8.310;2023-11-19T03:07:07;6.60;99.90
46085;DHT22;31823;47.032;8.310;2023-11-19T03:09:33;6.60;99.90
46085;DHT22;31823;47.032;8.310;2023-11-19T03:12:01;6.50;99.90
46085;DHT22;31823;47.032;8.310;2023-11-19T03:14:27;6.50;99.90
46085;DHT22;31823;47.032;8.310;2023-11-19T03:16:53;6.50;99.90
46085;DHT22;31823;47.032;8.310;2023-11-19T03:19:19;6.50;99.90
46085;DHT22;31823;47.032;8.310;2023-11-19T03:21:45;6.60;99.90
46085;DHT22;31823;47.032;8.310;2023-11-19T03:24:13;6.70;99.90
46085;DHT22;31823;47.032;8.310;2023-11-19T03:26:39;6.70;99.90
46085;DHT22;31823;47.032;8.310;2023-11-19T03:29:05;6.70;99.90
46085;DHT22;31823;47.032;8.310;2023-11-19T03:31:31;6.70;99.90
46085;DHT22;31823;47.032;8.310;2023-11-19T03:33:56;6.70;99.90
46085;DHT22;31823;47.032;8.310;2023-11-19T03:36:22;6.70;99.90
46085;DHT22;31823;47.032;8.310;2023-11-19T03:38:48;6.80;99.90
46085;DHT22;31823;47.032;8.310;2023-11-19T03:41:13;6.90;99.90
46085;DHT22;31823;47.032;8.310;2023-11-19T03:43:40;6.90;99.90
46085;DHT22;31823;47.032;8.310;2023-11-19T03:46:19;6.80;99.90
46085;DHT22;31823;47.032;8.310;2023-11-19T03:48:46;6.90;99.90
46085;DHT22;31823;47.032;8.310;2023-11-19T03:51:12;6.90;99.90
46085;DHT22;31823;47.032;8.310;2023-11-19T03:53:45;6.90;99.90
46085;DHT22;31823;47.032;8.310;2023-11-19T03:56:11;6.90;99.90
46085;DHT22;31823;47.032;8.310;2023-11-19T03:58:37;6.90;99.90
46085;DHT22;31823;47.032;8.310;2023-11-19T04:01:04;6.90;99.90
46085;DHT22;31823;47.032;8.310;2023-11-19T04:03:30;6.80;99.90
46085;DHT22;31823;47.032;8.310;2023-11-19T04:05:55;6.80;99.90
46085;DHT22;31823;47.032;8.310;2023-11-19T04:08:22;6.80;99.90
46085;DHT22;31823;47.032;8.310;2023-11-19T04:10:47;6.80;99.90
46085;DHT22;31823;47.032;8.310;2023-11-19T04:13:13;6.80;99.90
46085;DHT22;31823;47.032;8.310;2023-11-19T04:15:39;6.70;99.90
46085;DHT22;31823;47.032;8.310;2023-11-19T04:18:04;6.80;99.90
46085;DHT22;31823;47.032;8.310;2023-11-19T04:20:30;6.80;99.90
46085;DHT22;31823;47.032;8.310;2023-11-19T04:22:57;6.80;99.90
46085;DHT22;31823;47.032;8.310;2023-11-19T04:25:22;6.80;99.90
46085;DHT22;31823;47.032;8.310;2023-11-19T04:27:49;6.80;99.90
46085;DHT22;31823;47.032;8.310;2023-11-19T04:30:15;6.80;99.90
46085;DHT22;31823;47.032;8.310;2023-11-19T04:32:40;6.80;99.90
46085;DHT22;31823;47.032;8.310;2023-11-19T04:35:07;6.80;99.90
46085;DHT22;31823;47.032;8.310;2023-11-19T04:37:32;6.80;99.90
46085;DHT22;31823;47.032;8.310;2023-11-19T04:39:58;6.90;99.90
46085;DHT22;31823;47.032;8.310;2023-11-19T04:42:25;6.80;99.90
46085;DHT22;31823;47.032;8.310;2023-11-19T04:44:50;6.80;99.90
46085;DHT22;31823;47.032;8.310;2023-11-19T04:47:16;6.90;99.90
46085;DHT22;31823;47.032;8.310;2023-11-19T04:49:41;6.90;99.90
46085;DHT22;31823;47.032;8.310;2023-11-19T04:52:10;6.90;99.90
46085;DHT22;31823;47.032;8.310;2023-11-19T04:54:41;6.90;99.90
46085;DHT22;31823;47.032;8.310;2023-11-19T04:57:07;6.90;99.90
46085;DHT22;31823;47.032;8.310;2023-11-19T04:59:36;6.90;99.90
46085;DHT22;31823;47.032;8.310;2023-11-19T05:02:01;6.90;99.90
46085;DHT22;31823;47.032;8.310;2023-11-19T05:04:27;7.00;99.90
46085;DHT22;31823;47.032;8.310;2023-11-19T05:06:52;7.00;99.90
46085;DHT22;31823;47.032;8.310;2023-11-19T05:09:18;7.00;99.90
46085;DHT22;31823;47.032;8.310;2023-11-19T05:11:44;7.00;99.90
46085;DHT22;31823;47.032;8.310;2023-11-19T05:14:09;7.00;99.90
46085;DHT22;31823;47.032;8.310;2023-11-19T05:16:35;7.00;99.90
46085;DHT22;31823;47.032;8.310;2023-11-19T05:19:00;7.00;99.90
46085;DHT22;31823;47.032;8.310;2023-11-19T05:21:26;7.00;99.90
46085;DHT22;31823;47.032;8.310;2023-11-19T05:23:52;7.00;99.90
46085;DHT22;31823;47.032;8.310;2023-11-19T05:26:23;7.00;99.90
46085;DHT22;31823;47.032;8.310;2023-11-19T05:28:49;7.10;99.90
46085;DHT22;31823;47.032;8.310;2023-11-19T05:31:16;7.10;99.90
46085;DHT22;31823;47.032;8.310;2023-11-19T05:33:45;7.10;99.90
46085;DHT22;31823;47.032;8.310;2023-11-19T05:36:11;7.10;99.90
46085;DHT22;31823;47.032;8.310;2023-11-19T05:38:38;7.10;99.90
46085;DHT22;31823;47.032;8.310;2023-11-19T05:41:04;7.10;99.90
46085;DHT22;31823;47.032;8.310;2023-11-19T05:43:30;7.10;99.90
46085;DHT22;31823;47.032;8.310;2023-11-19T05:45:56;7.00;99.90
46085;DHT22;31823;47.032;8.310;2023-11-19T05:48:21;7.00;99.90
46085;DHT22;31823;47.032;8.310;2023-11-19T05:50:47;7.00;99.90
46085;DHT22;31823;47.032;8.310;2023-11-19T05:53:15;7.10;99.90
46085;DHT22;31823;47.032;8.310;2023-11-19T05:55:40;7.00;99.90
46085;DHT22;31823;47.032;8.310;2023-11-19T05:58:14;7.10;99.90
46085;DHT22;31823;47.032;8.310;2023-11-19T06:00:39;7.00;99.90
46085;DHT22;31823;47.032;8.310;2023-11-19T06:03:09;7.10;99.90
46085;DHT22;31823;47.032;8.310;2023-11-19T06:05:34;7.10;99.90
46085;DHT22;31823;47.032;8.310;2023-11-19T06:08:00;7.10;99.90
46085;DHT22;31823;47.032;8.310;2023-11-19T06:10:25;7.10;99.90
46085;DHT22;31823;47.032;8.310;2023-11-19T06:12:57;7.20;99.90
46085;DHT22;31823;47.032;8.310;2023-11-19T06:15:28;7.30;99.90
46085;DHT22;31823;47.032;8.310;2023-11-19T06:17:54;7.40;99.90
46085;DHT22;31823;47.032;8.310;2023-11-19T06:20:26;7.40;99.90
46085;DHT22;31823;47.032;8.310;2023-11-19T06:22:53;7.40;99.90
46085;DHT22;31823;47.032;8.310;2023-11-19T06:25:19;7.40;99.90
46085;DHT22;31823;47.032;8.310;2023-11-19T06:27:45;7.50;99.90
46085;DHT22;31823;47.032;8.310;2023-11-19T06:30:11;7.40;99.90
46085;DHT22;31823;47.032;8.310;2023-11-19T06:32:37;7.40;99.90
46085;DHT22;31823;47.032;8.310;2023-11-19T06:35:03;7.40;99.90
46085;DHT22;31823;47.032;8.310;2023-11-19T06:37:30;7.40;99.90
46085;DHT22;31823;47.032;8.310;2023-11-19T06:39:55;7.40;99.90
46085;DHT22;31823;47.032;8.310;2023-11-19T06:42:21;7.50;99.90
46085;DHT22;31823;47.032;8.310;2023-11-19T06:44:46;7.40;99.90
46085;DHT22;31823;47.032;8.310;2023-11-19T06:47:12;7.30;99.90
46085;DHT22;31823;47.032;8.310;2023-11-19T06:49:38;7.40;99.90
46085;DHT22;31823;47.032;8.310;2023-11-19T06:52:04;7.40;99.90
46085;DHT22;31823;47.032;8.310;2023-11-19T06:54:30;7.40;99.90
46085;DHT22;31823;47.032;8.310;2023-11-19T06:56:56;7.40;99.90
46085;DHT22;31823;47.032;8.310;2023-11-19T06:59:22;7.50;99.90
46085;DHT22;31823;47.032;8.310;2023-11-19T07:01:48;7.50;99.90
46085;DHT22;31823;47.032;8.310;2023-11-19T07:04:14;7.60;99.90
46085;DHT22;31823;47.032;8.310;2023-11-19T07:06:40;7.50;99.90
46085;DHT22;31823;47.032;8.310;2023-11-19T07:09:08;7.50;99.90
46085;DHT22;31823;47.032;8.310;2023-11-19T07:11:41;7.50;99.90
46085;DHT22;31823;47.032;8.310;2023-11-19T07:14:08;7.50;99.90
46085;DHT22;31823;47.032;8.310;2023-11-19T07:16:34;7.40;99.90
46085;DHT22;31823;47.032;8.310;2023-11-19T07:19:02;7.60;99.90
46085;DHT22;31823;47.032;8.310;2023-11-19T07:21:28;7.60;99.90
46085;DHT22;31823;47.032;8.310;2023-11-19T07:23:55;7.70;99.90
46085;DHT22;31823;47.032;8.310;2023-11-19T07:26:21;7.80;99.90
46085;DHT22;31823;47.032;8.310;2023-11-19T07:28:47;8.00;99.90
46085;DHT22;31823;47.032;8.310;2023-11-19T07:31:13;7.90;99.90
46085;DHT22;31823;47.032;8.310;2023-11-19T07:33:42;7.90;99.90
46085;DHT22;31823;47.032;8.310;2023-11-19T07:36:11;8.00;99.90
46085;DHT22;31823;47.032;8.310;2023-11-19T07:38:37;8.10;99.90
46085;DHT22;31823;47.032;8.310;2023-11-19T07:41:04;8.10;99.90
46085;DHT22;31823;47.032;8.310;2023-11-19T07:43:33;8.10;99.90
46085;DHT22;31823;47.032;8.310;2023-11-19T07:46:04;8.10;99.90
46085;DHT22;31823;47.032;8.310;2023-11-19T07:48:33;8.10;99.90
46085;DHT22;31823;47.032;8.310;2023-11-19T07:51:00;8.10;99.90
46085;DHT22;31823;47.032;8.310;2023-11-19T07:53:26;8.10;99.90
46085;DHT22;31823;47.032;8.310;2023-11-19T07:55:52;8.10;99.90
46085;DHT22;31823;47.032;8.310;2023-11-19T07:58:17;8.10;99.90
46085;DHT22;31823;47.032;8.310;2023-11-19T08:00:46;8.10;99.90
46085;DHT22;31823;47.032;8.310;2023-11-19T08:03:11;8.10;99.90
46085;DHT22;31823;47.032;8.310;2023-11-19T08:05:37;8.20;99.90
46085;DHT22;31823;47.032;8.310;2023-11-19T08:08:03;8.20;99.90
46085;DHT22;31823;47.032;8.310;2023-11-19T08:10:28;8.20;99.90
46085;DHT22;31823;47.032;8.310;2023-11-19T08:12:54;8.20;99.90
46085;DHT22;31823;47.032;8.310;2023-11-19T08:15:29;8.20;99.90
46085;DHT22;31823;47.032;8.310;2023-11-19T08:17:54;8.30;99.90
46085;DHT22;31823;47.032;8.310;2023-11-19T08:20:20;8.30;99.90
46085;DHT22;31823;47.032;8.310;2023-11-19T08:22:46;8.30;99.90
46085;DHT22;31823;47.032;8.310;2023-11-19T08:25:11;8.30;99.90
46085;DHT22;31823;47.032;8.310;2023-11-19T08:27:37;8.30;99.90
46085;DHT22;31823;47.032;8.310;2023-11-19T08:30:03;8.30;99.90
46085;DHT22;31823;47.032;8.310;2023-11-19T08:32:29;8.40;99.90
46085;DHT22;31823;47.032;8.310;2023-11-19T08:34:54;8.40;99.90
46085;DHT22;31823;47.032;8.310;2023-11-19T08:37:21;8.50;99.90
46085;DHT22;31823;47.032;8.310;2023-11-19T08:39:50;8.60;99.90
46085;DHT22;31823;47.032;8.310;2023-11-19T08:42:16;8.60;99.90
46085;DHT22;31823;47.032;8.310;2023-11-19T08:44:43;8.60;99.90
46085;DHT22;31823;47.032;8.310;2023-11-19T08:47:11;8.70;99.90
46085;DHT22;31823;47.032;8.310;2023-11-19T08:49:36;8.80;99.90
46085;DHT22;31823;47.032;8.310;2023-11-19T08:52:02;8.80;99.90
46085;DHT22;31823;47.032;8.310;2023-11-19T08:54:27;8.90;99.90
46085;DHT22;31823;47.032;8.310;2023-11-19T08:56:53;8.90;99.90
46085;DHT22;31823;47.032;8.310;2023-11-19T08:59:19;8.90;99.90
46085;DHT22;31823;47.032;8.310;2023-11-19T09:01:44;8.90;99.90
46085;DHT22;31823;47.032;8.310;2023-11-19T09:04:10;8.90;99.90
46085;DHT22;31823;47.032;8.310;2023-11-19T09:06:36;9.00;99.90
46085;DHT22;31823;47.032;8.310;2023-11-19T09:09:02;9.00;99.90
46085;DHT22;31823;47.032;8.310;2023-11-19T09:11:31;9.10;99.90
46085;DHT22;31823;47.032;8.310;2023-11-19T09:13:57;9.00;99.90
46085;DHT22;31823;47.032;8.310;2023-11-19T09:16:22;9.10;99.90
46085;DHT22;31823;47.032;8.310;2023-11-19T09:18:48;9.10;99.90
46085;DHT22;31823;47.032;8.310;2023-11-19T09:21:13;9.10;99.90
46085;DHT22;31823;47.032;8.310;2023-11-19T09:23:39;9.10;99.90
46085;DHT22;31823;47.032;8.310;2023-11-19T09:26:06;9.20;99.90
46085;DHT22;31823;47.032;8.310;2023-11-19T09:28:33;9.20;99.90
46085;DHT22;31823;47.032;8.310;2023-11-19T09:30:59;9.20;99.90
46085;DHT22;31823;47.032;8.310;2023-11-19T09:33:24;9.30;99.90
46085;DHT22;31823;47.032;8.310;2023-11-19T09:35:50;9.30;99.90
46085;DHT22;31823;47.032;8.310;2023-11-19T09:38:16;9.40;99.90
46085;DHT22;31823;47.032;8.310;2023-11-19T09:40:42;9.40;99.90
46085;DHT22;31823;47.032;8.310;2023-11-19T09:43:08;9.40;99.90
46085;DHT22;31823;47.032;8.310;2023-11-19T09:45:48;9.50;99.90
46085;DHT22;31823;47.032;8.310;2023-11-19T09:48:17;9.50;99.90
46085;DHT22;31823;47.032;8.310;2023-11-19T09:50:47;9.50;99.90
46085;DHT22;31823;47.032;8.310;2023-11-19T09:53:14;9.60;99.90
46085;DHT22;31823;47.032;8.310;2023-11-19T09:55:41;9.70;99.90
46085;DHT22;31823;47.032;8.310;2023-11-19T09:58:07;9.80;99.90
46085;DHT22;31823;47.032;8.310;2023-11-19T10:00:33;9.80;99.90
46085;DHT22;31823;47.032;8.310;2023-11-19T10:03:00;9.90;99.90
46085;DHT22;31823;47.032;8.310;2023-11-19T10:05:25;9.90;99.90
46085;DHT22;31823;47.032;8.310;2023-11-19T10:07:52;9.90;99.90
46085;DHT22;31823;47.032;8.310;2023-11-19T10:10:18;9.90;99.90
46085;DHT22;31823;47.032;8.310;2023-11-19T10:12:48;9.80;99.90
46085;DHT22;31823;47.032;8.310;2023-11-19T10:15:25;9.80;99.90
46085;DHT22;31823;47.032;8.310;2023-11-19T10:17:55;9.70;99.90
46085;DHT22;31823;47.032;8.310;2023-11-19T10:20:20;9.70;99.90
46085;DHT22;31823;47.032;8.310;2023-11-19T10:22:46;9.70;99.90
46085;DHT22;31823;47.032;8.310;2023-11-19T10:25:26;9.70;99.90
46085;DHT22;31823;47.032;8.310;2023-11-19T10:27:52;9.80;99.90
46085;DHT22;31823;47.032;8.310;2023-11-19T10:30:26;9.90;99.90
46085;DHT22;31823;47.032;8.310;2023-11-19T10:33:03;9.90;99.90
46085;DHT22;31823;47.032;8.310;2023-11-19T10:35:29;10.00;99.90
46085;DHT22;31823;47.032;8.310;2023-11-19T10:37:54;10.10;99.90
46085;DHT22;31823;47.032;8.310;2023-11-19T10:40:20;10.20;99.90
46085;DHT22;31823;47.032;8.310;2023-11-19T10:42:46;10.30;99.90
46085;DHT22;31823;47.032;8.310;2023-11-19T10:45:22;10.30;99.90
46085;DHT22;31823;47.032;8.310;2023-11-19T10:47:51;10.40;99.90
46085;DHT22;31823;47.032;8.310;2023-11-19T10:50:17;10.60;99.90
46085;DHT22;31823;47.032;8.310;2023-11-19T10:52:44;10.70;99.90
46085;DHT22;31823;47.032;8.310;2023-11-19T10:55:11;11.10;99.90
46085;DHT22;31823;47.032;8.310;2023-11-19T10:57:43;11.40;99.90
46085;DHT22;31823;47.032;8.310;2023-11-19T11:00:17;11.40;99.90
46085;DHT22;31823;47.032;8.310;2023-11-19T11:02:48;11.30;99.90
46085;DHT22;31823;47.032;8.310;2023-11-19T11:05:16;11.00;99.90
46085;DHT22;31823;47.032;8.310;2023-11-19T11:07:44;10.90;99.90
46085;DHT22;31823;47.032;8.310;2023-11-19T11:10:11;11.00;99.90
46085;DHT22;31823;47.032;8.310;2023-11-19T11:12:41;11.10;99.90
46085;DHT22;31823;47.032;8.310;2023-11-19T11:15:07;11.20;99.90
46085;DHT22;31823;47.032;8.310;2023-11-19T11:17:34;11.10;99.90
46085;DHT22;31823;47.032;8.310;2023-11-19T11:19:59;11.30;99.90
46085;DHT22;31823;47.032;8.310;2023-11-19T11:22:27;11.70;99.90
46085;DHT22;31823;47.032;8.310;2023-11-19T11:28:16;11.50;99.90
46085;DHT22;31823;47.032;8.310;2023-11-19T11:31:00;11.50;99.90
46085;DHT22;31823;47.032;8.310;2023-11-19T11:34:05;11.70;99.90
46085;DHT22;31823;47.032;8.310;2023-11-19T11:37:25;11.80;99.90
46085;DHT22;31823;47.032;8.310;2023-11-19T11:39:52;11.90;99.90
46085;DHT22;31823;47.032;8.310;2023-11-19T11:45:15;12.30;99.90
46085;DHT22;31823;47.032;8.310;2023-11-19T11:50:14;12.90;99.90
46085;DHT22;31823;47.032;8.310;2023-11-19T11:57:53;12.30;99.90
46085;DHT22;31823;47.032;8.310;2023-11-19T12:00:39;12.30;99.90
46085;DHT22;31823;47.032;8.310;2023-11-19T12:03:07;12.40;99.90
46085;DHT22;31823;47.032;8.310;2023-11-19T12:05:44;12.30;99.90
46085;DHT22;31823;47.032;8.310;2023-11-19T12:08:11;12.20;99.90
46085;DHT22;31823;47.032;8.310;2023-11-19T12:10:52;12.30;99.90
46085;DHT22;31823;47.032;8.310;2023-11-19T12:13:19;12.50;99.90
46085;DHT22;31823;47.032;8.310;2023-11-19T12:18:32;12.50;99.90
46085;DHT22;31823;47.032;8.310;2023-11-19T12:21:00;12.40;99.90
46085;DHT22;31823;47.032;8.310;2023-11-19T12:23:29;12.60;99.90
46085;DHT22;31823;47.032;8.310;2023-11-19T12:25:55;12.70;99.90
46085;DHT22;31823;47.032;8.310;2023-11-19T12:28:21;12.50;99.90
46085;DHT22;31823;47.032;8.310;2023-11-19T12:30:49;12.30;99.90
46085;DHT22;31823;47.032;8.310;2023-11-19T12:33:15;12.40;99.90
46085;DHT22;31823;47.032;8.310;2023-11-19T12:35:43;12.40;99.90
46085;DHT22;31823;47.032;8.310;2023-11-19T12:38:25;12.30;99.90
46085;DHT22;31823;47.032;8.310;2023-11-19T12:41:06;12.40;99.90
46085;DHT22;31823;47.032;8.310;2023-11-19T12:43:32;12.50;99.90
46085;DHT22;31823;47.032;8.310;2023-11-19T12:46:00;12.30;99.90
46085;DHT22;31823;47.032;8.310;2023-11-19T12:48:25;12.20;99.90
46085;DHT22;31823;47.032;8.310;2023-11-19T12:50:55;12.00;99.90
46085;DHT22;31823;47.032;8.310;2023-11-19T12:53:23;11.90;99.90
46085;DHT22;31823;47.032;8.310;2023-11-19T12:55:50;11.90;99.90
46085;DHT22;31823;47.032;8.310;2023-11-19T12:58:31;11.80;99.90
46085;DHT22;31823;47.032;8.310;2023-11-19T13:03:33;11.70;99.90
46085;DHT22;31823;47.032;8.310;2023-11-19T13:06:06;11.70;99.90
46085;DHT22;31823;47.032;8.310;2023-11-19T13:08:44;11.70;99.90
46085;DHT22;31823;47.032;8.310;2023-11-19T13:11:11;11.80;99.90
46085;DHT22;31823;47.032;8.310;2023-11-19T13:13:59;11.80;99.90
46085;DHT22;31823;47.032;8.310;2023-11-19T13:16:26;11.90;99.90
46085;DHT22;31823;47.032;8.310;2023-11-19T13:18:53;11.90;99.90
46085;DHT22;31823;47.032;8.310;2023-11-19T13:21:18;11.90;99.90
46085;DHT22;31823;47.032;8.310;2023-11-19T13:23:44;11.80;99.90
46085;DHT22;31823;47.032;8.310;2023-11-19T13:26:10;11.90;99.90
46085;DHT22;31823;47.032;8.310;2023-11-19T13:28:37;12.00;99.90
46085;DHT22;31823;47.032;8.310;2023-11-19T13:31:03;12.00;99.90
46085;DHT22;31823;47.032;8.310;2023-11-19T13:33:28;11.90;99.90
46085;DHT22;31823;47.032;8.310;2023-11-19T13:35:55;11.90;99.90
46085;DHT22;31823;47.032;8.310;2023-11-19T13:38:20;11.90;99.90
46085;DHT22;31823;47.032;8.310;2023-11-19T13:40:46;12.00;99.90
46085;DHT22;31823;47.032;8.310;2023-11-19T13:43:11;12.00;99.90
46085;DHT22;31823;47.032;8.310;2023-11-19T13:45:37;12.10;99.90
46085;DHT22;31823;47.032;8.310;2023-11-19T13:48:03;12.20;99.90
46085;DHT22;31823;47.032;8.310;2023-11-19T13:50:28;12.20;99.90
46085;DHT22;31823;47.032;8.310;2023-11-19T13:52:54;12.30;99.90
46085;DHT22;31823;47.032;8.310;2023-11-19T13:55:20;12.50;99.90
46085;DHT22;31823;47.032;8.310;2023-11-19T13:57:47;12.90;99.90
46085;DHT22;31823;47.032;8.310;2023-11-19T14:00:14;12.80;99.90
46085;DHT22;31823;47.032;8.310;2023-11-19T14:02:47;12.90;99.90
46085;DHT22;31823;47.032;8.310;2023-11-19T14:05:14;12.90;99.90
46085;DHT22;31823;47.032;8.310;2023-11-19T14:07:42;12.60;99.90
46085;DHT22;31823;47.032;8.310;2023-11-19T14:10:09;12.50;99.90
46085;DHT22;31823;47.032;8.310;2023-11-19T14:12:37;12.50;99.90
46085;DHT22;31823;47.032;8.310;2023-11-19T14:15:03;12.50;99.90
46085;DHT22;31823;47.032;8.310;2023-11-19T14:17:31;12.50;99.90
46085;DHT22;31823;47.032;8.310;2023-11-19T14:19:56;12.40;99.90
46085;DHT22;31823;47.032;8.310;2023-11-19T14:22:22;12.30;99.90
46085;DHT22;31823;47.032;8.310;2023-11-19T14:24:48;12.30;99.90
46085;DHT22;31823;47.032;8.310;2023-11-19T14:27:13;12.30;99.90
46085;DHT22;31823;47.032;8.310;2023-11-19T14:29:39;12.30;99.90
46085;DHT22;31823;47.032;8.310;2023-11-19T14:32:05;12.10;99.90
46085;DHT22;31823;47.032;8.310;2023-11-19T14:34:32;12.00;99.90
46085;DHT22;31823;47.032;8.310;2023-11-19T14:36:58;11.90;99.90
46085;DHT22;31823;47.032;8.310;2023-11-19T14:39:23;11.80;99.90
46085;DHT22;31823;47.032;8.310;2023-11-19T14:41:49;11.60;99.90
46085;DHT22;31823;47.032;8.310;2023-11-19T14:44:16;11.60;99.90
46085;DHT22;31823;47.032;8.310;2023-11-19T14:46:42;11.60;99.90
46085;DHT22;31823;47.032;8.310;2023-11-19T14:49:07;11.40;99.90
46085;DHT22;31823;47.032;8.310;2023-11-19T14:51:39;11.30;99.90
46085;DHT22;31823;47.032;8.310;2023-11-19T14:54:05;11.30;99.90
46085;DHT22;31823;47.032;8.310;2023-11-19T14:56:31;11.30;99.90
46085;DHT22;31823;47.032;8.310;2023-11-19T14:58:57;11.20;99.90
46085;DHT22;31823;47.032;8.310;2023-11-19T15:01:22;11.30;99.90
46085;DHT22;31823;47.032;8.310;2023-11-19T15:03:48;11.20;99.90
46085;DHT22;31823;47.032;8.310;2023-11-19T15:06:13;11.10;99.90
46085;DHT22;31823;47.032;8.310;2023-11-19T15:08:40;11.10;99.90
46085;DHT22;31823;47.032;8.310;2023-11-19T15:11:07;11.10;99.90
46085;DHT22;31823;47.032;8.310;2023-11-19T15:13:34;11.10;99.90
46085;DHT22;31823;47.032;8.310;2023-11-19T15:16:02;11.00;99.90
46085;DHT22;31823;47.032;8.310;2023-11-19T15:18:27;11.00;99.90
46085;DHT22;31823;47.032;8.310;2023-11-19T15:20:53;11.00;99.90
46085;DHT22;31823;47.032;8.310;2023-11-19T15:23:18;11.10;99.90
46085;DHT22;31823;47.032;8.310;2023-11-19T15:25:45;11.10;99.90
46085;DHT22;31823;47.032;8.310;2023-11-19T15:28:10;11.10;99.90
46085;DHT22;31823;47.032;8.310;2023-11-19T15:30:37;11.00;99.90
46085;DHT22;31823;47.032;8.310;2023-11-19T15:33:02;11.00;99.90
46085;DHT22;31823;47.032;8.310;2023-11-19T15:35:28;10.90;99.90
46085;DHT22;31823;47.032;8.310;2023-11-19T15:37:53;10.90;99.90
46085;DHT22;31823;47.032;8.310;2023-11-19T15:40:21;10.80;99.90
46085;DHT22;31823;47.032;8.310;2023-11-19T15:42:46;10.80;99.90
46085;DHT22;31823;47.032;8.310;2023-11-19T15:45:13;10.80;99.90
46085;DHT22;31823;47.032;8.310;2023-11-19T15:47:39;10.80;99.90
46085;DHT22;31823;47.032;8.310;2023-11-19T15:50:05;10.70;99.90
46085;DHT22;31823;47.032;8.310;2023-11-19T15:52:32;10.70;99.90
46085;DHT22;31823;47.032;8.310;2023-11-19T15:54:58;10.70;99.90
46085;DHT22;31823;47.032;8.310;2023-11-19T15:57:24;10.70;99.90
46085;DHT22;31823;47.032;8.310;2023-11-19T15:59:49;10.70;99.90